• Join FlightAware (Why Join?)
  • Login
  • US Flag 
04:19AM EDT


 

Airport Tracker/Info


-or-


 

Live Flight TrackerFlight Track Log ✈ EJA221 ✈ 18-Jul-2013 ✈ KOXR - KEGE

Flight Track Log - Related Links

Times and Time Zones

All times are in EDT time to prevent confusion due to time zone crossing. See the EJA221 flight status page for this flight to view local times or setup timezone preferences in your user account.

Time Position Orientation Groundspeed Altitude Reporting Facility
EDT Latitude Longitude Course Direction KTS MPH feet Rate Location/Type
04:14PM 34.1981 -119.3069 266° West 225 259 2,600  Level Los Angeles Center
04:15PM 34.1917 -119.3917 265° West 243 280 5,200 2,640 Climbing Los Angeles Center
04:16PM 34.1819 -119.4861 263° West 266 306 8,700 2,760 Climbing Los Angeles Center
04:17PM 34.1911 -119.6075 275° West 332 382 11,000 2,160 Climbing Los Angeles Center
04:18PM 34.2844 -119.6003 North 375 432 13,200 2,220 Climbing Los Angeles Center
04:19PM 34.3047 -119.4800 78° East 370 426 15,700 2,460 Climbing Los Angeles Center
04:20PM 34.3128 -119.3236 86° East 388 447 18,400 1,980 Climbing Los Angeles Center
04:21PM 34.3322 -119.1939 80° East 394 453 19,900 1,500 Climbing Los Angeles Center
04:22PM 34.3694 -119.0600 71° East 416 479 21,500 1,440 Climbing Los Angeles Center
04:23PM 34.4064 -118.9211 72° East 426 490 23,000 720 Climbing Los Angeles Center
04:24PM 34.4431 -118.7825 72° East 429 494 23,000  Level Los Angeles Center
04:25PM 34.4719 -118.6719 72° East 430 495 23,000 420 Level Los Angeles Center
04:26PM 34.5239 -118.4786 72° East 430 495 23,900 1,200 Climbing Los Angeles Center
04:27PM 34.5614 -118.3378 72° East 436 502 25,600 1,740 Climbing Los Angeles Center
04:28PM 34.5983 -118.1931 73° East 446 513 27,500 1,380 Climbing Los Angeles Center
04:29PM 34.6250 -118.0917 72° East 447 514 28,500 1,500 Climbing Los Angeles Center
04:30PM 34.6744 -117.8761 74° East 476 548 30,700 2,220 Climbing Los Angeles Center
04:31PM 34.7094 -117.7211 75° East 482 555 33,200 2,220 Climbing Los Angeles Center
04:32PM 34.7428 -117.5706 75° East 470 541 35,400 1,680 Climbing Los Angeles Center
04:33PM 34.7764 -117.4183 75° East 471 542 36,800 1,920 Climbing Los Angeles Center
04:34PM 34.8169 -117.2372 75° East 466 536 39,400 1,980 Climbing Los Angeles Center
04:36PM 34.8489 -117.0872 75° East 460 529 40,900 720 Climbing Los Angeles Center
04:37PM 34.8806 -116.9381 75° East 459 528 41,000  Climbing Los Angeles Center
04:38PM 34.9372 -116.8014 63° Northeast 454 522 41,000  Level Los Angeles Center
04:39PM 35.0406 -116.6575 49° Northeast 467 537 41,000  Level Los Angeles Center
04:40PM 35.1578 -116.4922 49° Northeast 466 536 41,000  Level Los Angeles Center
04:41PM 35.2575 -116.3497 49° Northeast 464 534 41,000  Level Los Angeles Center
04:42PM 35.3411 -116.2325 49° Northeast 461 531 41,000  Level Los Angeles Center
04:43PM 35.4214 -116.1125 51° Northeast 459 528 41,000  Level Los Angeles Center
04:44PM 35.5089 -115.9906 49° Northeast 461 531 41,000  Level Los Angeles Center
04:45PM 35.6064 -115.8481 50° Northeast 460 529 41,000  Level Los Angeles Center
04:46PM 35.6886 -115.7303 49° Northeast 457 526 41,000  Level Los Angeles Center
04:48PM 35.7703 -115.6117 50° Northeast 457 526 41,000  Level Los Angeles Center
04:49PM 35.8514 -115.4928 50° Northeast 456 525 41,000  Level Los Angeles Center
04:50PM 35.9328 -115.3733 50° Northeast 457 526 41,000  Level Los Angeles Center
04:51PM 36.0281 -115.2328 50° Northeast 451 519 41,000  Level Los Angeles Center
04:52PM 36.1094 -115.1178 49° Northeast 450 518 41,000  Level Los Angeles Center
04:53PM 36.1794 -115.0297 45° Northeast 452 520 41,000  Level Los Angeles Center
04:54PM 36.2850 -114.8975 45° Northeast 453 521 41,000  Level Los Angeles Center
04:55PM 36.3722 -114.7867 46° Northeast 453 521 41,000  Level Los Angeles Center
04:56PM 36.4775 -114.6492 46° Northeast 458 527 41,000  Level Los Angeles Center
04:57PM 36.5617 -114.5381 47° Northeast 449 517 41,000  Level Los Angeles Center
04:58PM 36.6481 -114.4247 46° Northeast 452 520 41,000  Level Los Angeles Center
04:59PM 36.7344 -114.3117 46° Northeast 452 520 41,000  Level Los Angeles Center
05:00PM 36.8047 -114.1853 55° Northeast 446 513 41,000  Level Los Angeles Center
05:01PM 36.8689 -114.0525 59° Northeast 448 516 41,000  Level Los Angeles Center
05:02PM 36.9450 -113.8914 59° Northeast 449 517 41,000  Level Los Angeles Center
05:03PM 37.0028 -113.7722 59° Northeast 447 514 41,000  Level Los Angeles Center
05:04PM 37.0667 -113.6400 59° Northeast 445 512 41,000  Level Los Angeles Center
05:05PM 37.1586 -113.4975 51° Northeast 439 505 41,000  Level Los Angeles Center
05:06PM 37.2483 -113.3933 43° Northeast 439 505 41,000  Level Los Angeles Center
05:07PM 37.3375 -113.2894 43° Northeast 438 504 41,000  Level Los Angeles Center
05:08PM 37.4261 -113.1858 43° Northeast 435 501 41,000  Level Los Angeles Center
05:09PM 37.5092 -113.0750 47° Northeast 436 502 41,000  Level Los Angeles Center
05:10PM 37.5950 -112.9358 52° Northeast 453 521 41,000  Level Los Angeles Center
05:12PM 37.6864 -112.7889 52° Northeast 457 526 41,000  Level Salt Lake Center
05:13PM 37.7728 -112.6419 53° Northeast 441 507 41,000  Level Salt Lake Center
05:14PM 37.8461 -112.5172 53° Northeast 440 506 41,000  Level Salt Lake Center
05:15PM 37.9150 -112.3881 56° Northeast 442 509 41,000  Level Salt Lake Center
05:16PM 37.9578 -112.2400 70° East 443 510 41,000  Level Salt Lake Center
05:17PM 38.0025 -112.0947 69° East 443 510 41,000  Level Salt Lake Center
05:18PM 38.0467 -111.9514 69° East 438 504 41,000  Level Salt Lake Center
05:19PM 38.0986 -111.7750 69° East 444 511 41,000  Level Salt Lake Center
05:20PM 38.1428 -111.6261 69° East 450 518 41,000  Level Salt Lake Center
05:21PM 38.1881 -111.4817 68° East 442 509 41,000  Level Salt Lake Center
05:22PM 38.2308 -111.3369 69° East 438 504 41,000  Level Salt Lake Center
05:23PM 38.2739 -111.1908 69° East 441 507 41,000  Level Salt Lake Center
05:24PM 38.3169 -111.0453 69° East 440 506 41,000  Level Salt Lake Center
05:25PM 38.3633 -110.8869 69° East 436 502 41,000  Level Salt Lake Center
05:26PM 38.4103 -110.7239 70° East 438 504 41,000  Level Salt Lake Center
05:27PM 38.4564 -110.5867 67° East 440 506 41,000  Level Salt Lake Center
05:28PM 38.5111 -110.4289 66° East 436 502 41,000  Level Salt Lake Center
05:29PM 38.5578 -110.2928 66° East 437 503 41,000  Level Salt Lake Center
05:30PM 38.6133 -110.1333 66° East 440 506 41,000  Level Salt Lake Center
05:31PM 38.6594 -109.9969 67° East 437 503 41,000  Level Salt Lake Center
05:32PM 38.7058 -109.8597 67° East 439 505 41,000  Level Salt Lake Center
05:33PM 38.7592 -109.7017 67° East 436 502 41,000 -540 Level Salt Lake Center
05:34PM 38.8064 -109.5622 66° East 442 509 39,900 -1,260 Descending Salt Lake Center
05:35PM 38.8619 -109.3944 67° East 456 525 38,500 -1,320 Descending Salt Lake Center
05:36PM 38.9097 -109.2497 67° East 459 528 37,200 -1,320 Descending Salt Lake Center
05:37PM 38.9653 -109.0803 67° East 463 533 35,800 -1,320 Descending Salt Lake Center
05:38PM 39.0128 -108.9367 67° East 459 528 34,500 -1,380 Descending Salt Lake Center
05:40PM 39.0703 -108.7664 66° East 465 535 33,000 -1,320 Descending Salt Lake Center
05:41PM 39.1053 -108.6128 74° East 474 545 31,800 -1,380 Descending Salt Lake Center
05:42PM 39.1336 -108.4242 79° East 482 555 30,200 -1,440 Descending Salt Lake Center
05:43PM 39.1583 -108.2608 79° East 485 558 28,900 -1,380 Descending Salt Lake Center
05:44PM 39.1875 -108.0711 79° East 486 559 27,400 -1,140 Descending Salt Lake Center
05:45PM 39.2797 -107.8494 62° Northeast 491 565 26,100 -1,260 Descending Denver Center
05:46PM 39.3594 -107.6967 56° Northeast 470 541 24,300 -1,800 Descending Denver Center
05:47PM 39.4281 -107.5672 56° Northeast 461 531 22,500 -1,920 Descending Denver Center
05:48PM 39.5036 -107.4203 56° Northeast 446 513 20,400 -1,740 Descending Denver Center
05:49PM 39.5683 -107.2947 56° Northeast 442 509 19,000 -1,080 Descending Denver Center
05:50PM 39.6428 -107.1547 55° Northeast 424 488 18,200 -1,200 Descending Denver Center
05:51PM 39.6950 -107.0497 57° Northeast 358 412 16,600 -1,320 Descending Denver Center
05:52PM 39.7269 -106.9422 69° East 325 374 15,500 -1,680 Descending Denver Center
05:53PM 39.7389 -106.8428 81° East 283 326 13,200 -2,280 Descending Denver Center
05:54PM 39.7133 -106.7672 114° Southeast 256 295 10,800 -1,860 Descending Denver Center
05:55PM 39.6608 -106.8031 208° Southwest 221 254 9,400 -1,620 Descending Denver Center
05:56PM 39.6486 -106.8614 255° West 185 213 7,500 -1,260 Descending Denver Center
05:58PM 39.6428 -106.9142 262° West 157 181 6,800 -720 Descending Denver Center